DW2778 Lewes DE US current weather conditions

sailwx.info

Wind from 067 at 5 knots gusting 10

Air temperature 22.2° C
Dewpoint 21.0° C

Last reported at 2020-Aug-08 10:30 UTC.
Time now 2020-Aug-08 12:05 UTC

Location: N 38°47' W 075°09'.
View on Google Maps.

See reports from other nearby stations

  
Tides and Currents Weather Stations Pressure Air Temp Water Temp Dewpoint Dewpoint Depression Visibility Wind Speed Wind Dir Waves Ship Positions
date/time (UTC)wind fromknots sea level pressurealtimeterstation pressurevisibilityair tempwater tempwave heightnotes
2020-Aug-08 10:30 067 5 gusting 10 22.2
2020-Aug-08 10:16 093 6 gusting 10 22.2
2020-Aug-08 09:46 052 6 gusting 10 22.2
2020-Aug-08 09:31 057 6 gusting 8 22.2
2020-Aug-08 09:15 048 6 gusting 8 22.2
2020-Aug-08 09:01 088 2 gusting 10 22.2
2020-Aug-08 08:30 028 6 gusting 12 22.8
2020-Aug-08 08:17 041 6 gusting 13 23.3
2020-Aug-08 07:45 019 4 gusting 8 22.2
2020-Aug-08 07:16 009 3 gusting 6 21.7
2020-Aug-08 06:15 242 1 gusting 5 21.7
2020-Aug-08 06:02 246 3 gusting 7 21.7
2020-Aug-08 05:30 223 4 gusting 8 21.7
2020-Aug-08 05:16 202 3 gusting 6 21.7
2020-Aug-08 04:31 242 4 gusting 9 21.7
2020-Aug-08 03:47 166 21.7
2020-Aug-08 03:31 159 4 gusting 8 21.7
2020-Aug-08 02:45 136 5 gusting 9 21.7
2020-Aug-08 02:31 114 3 gusting 7 21.7
2020-Aug-08 02:01 021 5 gusting 8 21.7
2020-Aug-08 01:15 024 10 gusting 14 23.3
2020-Aug-08 01:01 064 4 gusting 10 23.3
2020-Aug-08 00:31 182 0 gusting 6 23.3
2020-Aug-08 00:01 121 4 gusting 9 23.9
2020-Aug-07 23:48 142 6 gusting 10 23.9
2020-Aug-07 23:00 118 4 gusting 9 25.0
2020-Aug-07 22:46 111 5 gusting 10 25.6
2020-Aug-07 22:16 146 6 gusting 12 26.1
2020-Aug-07 22:01 132 6 gusting 13 26.7
2020-Aug-07 21:30 091 8 gusting 12 26.7
2020-Aug-07 20:46 101 7 gusting 13 25.0
2020-Aug-07 20:31 118 8 gusting 15 25.0
2020-Aug-07 19:45 073 8 gusting 13 26.1
2020-Aug-07 19:31 063 7 gusting 11 27.2
2020-Aug-07 19:00 088 7 gusting 10 27.2
2020-Aug-07 18:45 066 6 gusting 9 27.2
2020-Aug-07 18:15 038 4 gusting 7 27.8
2020-Aug-07 18:02 076 2 gusting 5 27.8
2020-Aug-07 17:45 071 4 gusting 6 27.8
2020-Aug-07 17:31 055 3 gusting 6 27.8
2020-Aug-07 17:01 085 4 gusting 6 26.7
2020-Aug-07 16:47 084 6 gusting 9 26.7
2020-Aug-07 16:30 076 4 gusting 7 27.2
2020-Aug-07 16:16 078 2 gusting 6 26.7
2020-Aug-07 16:01 061 4 gusting 6 26.1
2020-Aug-07 15:46 043 3 gusting 6 26.1
2020-Aug-07 15:16 069 4 gusting 7 25.6
2020-Aug-07 14:45 059 2 gusting 6 25.6
2020-Aug-07 14:30 059 2 gusting 6 25.0
2020-Aug-07 14:00 071 3 gusting 6 24.4
2020-Aug-07 13:46 093 2 gusting 6 24.4
2020-Aug-07 13:30 058 0 gusting 4 23.3
2020-Aug-07 13:16 063 1 gusting 4 23.3
2020-Aug-07 13:01 071 1 gusting 4 23.3
2020-Aug-07 12:46 076 0 gusting 3 23.3
2020-Aug-07 12:30 076 1 gusting 3 23.3
2020-Aug-07 12:16 083 1 gusting 4 22.8
2020-Aug-07 12:00 149 1 gusting 4 22.8
2020-Aug-07 11:30 126 0 gusting 2 22.2
2020-Aug-07 11:16 104 1 gusting 3 21.7
2020-Aug-07 11:00 146 21.7
2020-Aug-07 10:46 146 0 gusting 2 21.7
2020-Aug-07 10:30 139 1 gusting 4 21.7
2020-Aug-07 10:15 126 0 gusting 2 21.7
2020-Aug-07 10:01 080 1 gusting 5 21.7
2020-Aug-07 09:01 082 4 gusting 7 22.2
2020-Aug-07 08:46 106 4 gusting 7 22.2
2020-Aug-07 07:45 086 4 gusting 6 22.2
2020-Aug-07 07:31 078 4 gusting 7 21.7
2020-Aug-07 06:00 113 0 gusting 6 22.2
2020-Aug-07 05:00 148 6 gusting 12 22.2
2020-Aug-07 04:15 092 6 gusting 11 21.7
2020-Aug-07 04:01 105 7 gusting 13 21.7
2020-Aug-07 03:30 097 7 gusting 10 22.2
2020-Aug-07 03:16 063 5 gusting 7 22.2
2020-Aug-07 02:45 088 8 gusting 11 22.2
2020-Aug-07 02:30 080 6 gusting 9 22.2
2020-Aug-07 02:00 080 2 gusting 8 22.2
2020-Aug-07 01:46 105 6 gusting 9 22.2
2020-Aug-07 01:16 092 2 gusting 6 22.2
2020-Aug-07 00:16 115 4 gusting 7 22.2
2020-Aug-06 23:31 075 6 gusting 9 22.2
2020-Aug-06 23:01 096 3 gusting 7 22.2
2020-Aug-06 22:45 111 5 gusting 8 22.2
2020-Aug-06 22:32 092 3 gusting 10 22.2
2020-Aug-06 22:00 101 6 gusting 10 22.8
2020-Aug-06 21:15 119 4 gusting 13 22.2
2020-Aug-06 20:45 080 6 gusting 11 22.8
2020-Aug-06 20:31 081 6 gusting 8 22.8
2020-Aug-06 20:15 079 7 gusting 10 22.8
2020-Aug-06 19:30 121 4 gusting 12 24.4
2020-Aug-06 18:45 123 7 gusting 16 26.1
2020-Aug-06 18:15 132 6 gusting 11 26.1
2020-Aug-06 18:02 115 6 gusting 20 26.7
2020-Aug-06 17:30 107 7 gusting 13 26.1
2020-Aug-06 17:17 092 6 gusting 13 25.0
2020-Aug-06 16:31 085 8 gusting 13 25.0
2020-Aug-06 16:01 111 7 gusting 12 23.9
2020-Aug-06 14:15 127 0 gusting 6 22.2
2020-Aug-06 14:01 134 3 gusting 6 21.7
2020-Aug-06 13:45 152 2 gusting 6 21.7
2020-Aug-06 13:00 294 21.7
2020-Aug-06 12:46 346 4 gusting 9 21.7
2020-Aug-06 12:31 341 6 gusting 8 21.7
2020-Aug-06 12:16 300 3 gusting 12 22.2
2020-Aug-06 12:00 259 6 gusting 12 23.3